Delhi, Iowa
Current Conditions -  °F | °C
As of 7:35 PM on Tuesday 25 Nov 2014 (Local Time) from KMXO Reporting Station
Clear Clear  
Wind Chill: -10°   Ceiling: Unl
Heat Index: -10°   Visibility: 10mi
Dew Point: -11°   Wind: 0mph
Humidity: 93%   Direction: NA
Pressure: 30.11"   Gusts: NA
Location:  42.43°N, 91.33°W
Report Text: KMXO 260135Z AUTO 00000KT 10SM CLR M10/M11 A3011 RMK AO2
Loading
Personal Weather Stations






























Interactive Weather Map New forecast layout! Learn more

10-Day Weather Forecast

Advertisements
Track Severe Weather on mobile